createdAt,value
2023-07-30T00:00:41.552Z,100606.58
2023-07-30T00:03:29.963Z,100605.61
2023-07-30T00:05:58.484Z,100607.80
2023-07-30T00:08:26.607Z,100608.58
2023-07-30T00:10:57.608Z,100611.59
2023-07-30T00:13:29.238Z,100611.89
2023-07-30T00:15:57.527Z,100610.20
2023-07-30T00:18:25.862Z,100615.92
2023-07-30T00:20:54.338Z,100615.58
2023-07-30T00:23:25.094Z,100618.40
2023-07-30T00:25:53.312Z,100618.95
2023-07-30T00:28:21.564Z,100617.68
2023-07-30T00:30:50.410Z,100613.81
2023-07-30T00:33:19.020Z,100610.69
2023-07-30T00:35:47.578Z,100607.98
2023-07-30T00:38:17.336Z,100609.52
2023-07-30T00:40:46.117Z,100612.27
2023-07-30T00:43:14.308Z,100619.70
2023-07-30T00:45:45.175Z,100622.33
2023-07-30T00:48:14.607Z,100620.17
2023-07-30T00:50:43.361Z,100620.23
2023-07-30T00:53:15.457Z,100618.34
2023-07-30T00:55:44.136Z,100616.09
2023-07-30T00:58:12.941Z,100614.23
2023-07-30T01:00:42.580Z,100610.79
2023-07-30T01:03:11.057Z,100610.12
2023-07-30T01:05:39.340Z,100605.04
2023-07-30T01:08:07.809Z,100607.94
2023-07-30T01:10:37.593Z,100612.02
2023-07-30T01:13:08.293Z,100614.70
2023-07-30T01:15:39.054Z,100614.65
2023-07-30T01:18:07.896Z,100620.29
2023-07-30T01:20:36.273Z,100615.16
2023-07-30T01:23:04.585Z,100619.11
2023-07-30T01:25:37.717Z,100618.89
2023-07-30T01:28:14.284Z,100620.95
2023-07-30T01:30:44.334Z,100627.19
2023-07-30T01:33:19.787Z,100624.74
2023-07-30T01:35:48.505Z,100624.29
2023-07-30T01:38:18.218Z,100617.14
2023-07-30T01:40:46.797Z,100614.69
2023-07-30T01:43:15.209Z,100622.96
2023-07-30T01:45:43.277Z,100622.41
2023-07-30T01:48:14.730Z,100623.91
2023-07-30T01:50:44.363Z,100617.59
2023-07-30T01:53:12.632Z,100619.64
2023-07-30T01:55:44.628Z,100620.48
2023-07-30T01:58:14.331Z,100622.81
2023-07-30T02:00:42.615Z,100623.95
2023-07-30T02:03:10.947Z,100626.09
2023-07-30T02:05:39.507Z,100630.12
2023-07-30T02:08:08.053Z,100633.81
2023-07-30T02:10:36.452Z,100632.07
2023-07-30T02:13:04.870Z,100636.30
2023-07-30T02:15:33.193Z,100638.95
2023-07-30T02:18:01.607Z,100639.48
2023-07-30T02:20:29.807Z,100642.55
2023-07-30T02:22:57.918Z,100644.29
2023-07-30T02:25:26.142Z,100647.98
2023-07-30T02:27:54.534Z,100653.73
2023-07-30T02:30:23.027Z,100646.84
2023-07-30T02:32:51.826Z,100650.13
2023-07-30T02:35:20.356Z,100650.89
2023-07-30T02:37:50.120Z,100652.14
2023-07-30T02:40:18.867Z,100654.69
2023-07-30T02:42:47.196Z,100657.98
2023-07-30T02:45:15.657Z,100660.60
2023-07-30T02:47:43.985Z,100664.66
2023-07-30T02:50:12.425Z,100667.90
2023-07-30T02:52:40.638Z,100669.20
2023-07-30T02:55:09.532Z,100666.40
2023-07-30T02:57:37.699Z,100657.39
2023-07-30T03:00:07.139Z,100658.63
2023-07-30T03:02:35.477Z,100660.97
2023-07-30T03:05:05.262Z,100662.61
2023-07-30T03:07:33.520Z,100665.96
2023-07-30T03:10:02.430Z,100663.27
2023-07-30T03:12:30.621Z,100661.94
2023-07-30T03:14:59.033Z,100665.13
2023-07-30T03:17:27.604Z,100667.91
2023-07-30T03:19:55.846Z,100669.38
2023-07-30T03:22:23.972Z,100665.38
2023-07-30T03:24:52.257Z,100658.25
2023-07-30T03:27:22.095Z,100647.06
2023-07-30T03:29:50.404Z,100649.77
2023-07-30T03:32:18.876Z,100649.70
2023-07-30T03:34:47.204Z,100646.29
2023-07-30T03:37:15.998Z,100647.19
2023-07-30T03:39:44.505Z,100651.58
2023-07-30T03:42:12.589Z,100653.64
2023-07-30T03:44:40.740Z,100651.77
2023-07-30T03:47:08.861Z,100655.95
2023-07-30T03:49:38.592Z,100656.85
2023-07-30T03:52:07.866Z,100658.41
2023-07-30T03:54:36.185Z,100655.40
2023-07-30T03:57:04.914Z,100654.79
2023-07-30T03:59:33.064Z,100656.80
2023-07-30T04:02:01.783Z,100654.59
2023-07-30T04:04:30.101Z,100651.67
2023-07-30T04:06:58.390Z,100650.86
2023-07-30T04:09:27.148Z,100652.45
2023-07-30T04:11:55.414Z,100652.93
2023-07-30T04:14:24.070Z,100657.86
2023-07-30T04:16:52.478Z,100660.42
2023-07-30T04:19:22.292Z,100664.27
2023-07-30T04:21:50.587Z,100665.09
2023-07-30T04:24:20.087Z,100665.94
2023-07-30T04:26:48.595Z,100669.08
2023-07-30T04:29:17.883Z,100666.69
2023-07-30T04:31:47.053Z,100672.89
2023-07-30T04:34:16.338Z,100674.45
2023-07-30T04:36:44.996Z,100677.59
2023-07-30T04:39:14.236Z,100676.97
2023-07-30T04:41:42.678Z,100673.46
2023-07-30T04:44:11.326Z,100673.38
2023-07-30T04:46:39.902Z,100670.76
2023-07-30T04:49:08.310Z,100671.23
2023-07-30T04:51:37.396Z,100668.30
2023-07-30T04:54:05.969Z,100666.46
2023-07-30T04:56:34.328Z,100665.51
2023-07-30T04:59:03.157Z,100658.30
2023-07-30T05:01:32.528Z,100663.16
2023-07-30T05:04:00.871Z,100667.37
2023-07-30T05:06:29.190Z,100671.13
2023-07-30T05:08:57.883Z,100682.59
2023-07-30T05:11:26.010Z,100678.70
2023-07-30T05:13:54.912Z,100680.77
2023-07-30T05:16:23.381Z,100678.12
2023-07-30T05:18:51.647Z,100667.79
2023-07-30T05:21:20.144Z,100664.95
2023-07-30T05:23:50.706Z,100660.73
2023-07-30T05:26:18.767Z,100655.96
2023-07-30T05:28:46.966Z,100651.94
2023-07-30T05:31:16.152Z,100652.95
2023-07-30T05:33:44.993Z,100652.40
2023-07-30T05:36:13.618Z,100649.52
2023-07-30T05:38:42.030Z,100647.78
2023-07-30T05:41:10.449Z,100648.63
2023-07-30T05:43:38.857Z,100649.55
2023-07-30T05:46:09.596Z,100655.86
2023-07-30T05:48:44.843Z,100655.95
2023-07-30T05:51:14.852Z,100654.33
2023-07-30T05:53:54.436Z,100647.43
2023-07-30T05:56:28.382Z,100646.36
2023-07-30T05:58:56.862Z,100640.52
2023-07-30T06:01:25.203Z,100640.27
2023-07-30T06:03:53.483Z,100640.97
2023-07-30T06:06:28.086Z,100638.09
2023-07-30T06:08:57.086Z,100634.16
2023-07-30T06:11:26.324Z,100631.55
2023-07-30T06:13:55.466Z,100631.30
2023-07-30T06:16:24.058Z,100632.54
2023-07-30T06:18:52.224Z,100634.26
2023-07-30T06:21:20.281Z,100632.91
2023-07-30T06:23:48.699Z,100629.89
2023-07-30T06:26:17.102Z,100631.92
2023-07-30T06:28:45.481Z,100630.34
2023-07-30T06:31:14.492Z,100633.59
2023-07-30T06:33:42.856Z,100632.84
2023-07-30T06:36:11.186Z,100635.91
2023-07-30T06:38:39.741Z,100630.77
2023-07-30T06:41:08.155Z,100631.37
2023-07-30T06:43:36.499Z,100636.49
2023-07-30T06:46:05.054Z,100638.52
2023-07-30T06:48:33.692Z,100635.01
2023-07-30T06:51:03.083Z,100632.88
2023-07-30T06:53:31.624Z,100629.27
2023-07-30T06:55:59.916Z,100635.80
2023-07-30T06:58:28.046Z,100635.31
2023-07-30T07:00:56.437Z,100638.50
2023-07-30T07:03:26.130Z,100634.19
2023-07-30T07:06:03.531Z,100631.09
2023-07-30T07:08:44.201Z,100633.56
2023-07-30T07:11:12.614Z,100633.40
2023-07-30T07:13:41.025Z,100627.36
2023-07-30T07:16:10.069Z,100625.64
2023-07-30T07:18:38.431Z,100621.63
2023-07-30T07:21:06.710Z,100619.55
2023-07-30T07:23:35.210Z,100617.05
2023-07-30T07:26:03.508Z,100613.59
2023-07-30T07:28:32.097Z,100608.05
2023-07-30T07:31:00.645Z,100608.58
2023-07-30T07:33:29.385Z,100605.27
2023-07-30T07:36:08.115Z,100607.11
2023-07-30T07:38:37.518Z,100608.12
2023-07-30T07:41:05.868Z,100608.02
2023-07-30T07:43:37.821Z,100611.02
2023-07-30T07:46:11.313Z,100604.42
2023-07-30T07:48:40.062Z,100605.40
2023-07-30T07:51:10.731Z,100603.19
2023-07-30T07:53:39.484Z,100600.66
2023-07-30T07:56:08.396Z,100594.32
2023-07-30T07:58:37.605Z,100599.46
2023-07-30T08:01:05.895Z,100593.48
2023-07-30T08:03:34.409Z,100593.87
2023-07-30T08:06:03.005Z,100595.91
2023-07-30T08:08:31.320Z,100592.27
2023-07-30T08:11:00.098Z,100590.84
2023-07-30T08:13:28.305Z,100589.43
2023-07-30T08:15:56.440Z,100583.19
2023-07-30T08:18:25.044Z,100575.23
2023-07-30T08:20:53.308Z,100578.55
2023-07-30T08:23:22.038Z,100575.76
2023-07-30T08:25:51.846Z,100571.65
2023-07-30T08:28:21.356Z,100566.96
2023-07-30T08:30:49.852Z,100564.13
2023-07-30T08:33:18.202Z,100566.20
2023-07-30T08:35:46.622Z,100565.00
2023-07-30T08:38:15.013Z,100562.20
2023-07-30T08:40:44.057Z,100554.36
2023-07-30T08:43:12.443Z,100550.83
2023-07-30T08:45:40.831Z,100547.90
2023-07-30T08:48:08.965Z,100545.19
2023-07-30T08:50:38.438Z,100547.85
2023-07-30T08:53:08.843Z,100553.45
2023-07-30T08:55:38.381Z,100551.57
2023-07-30T08:58:07.606Z,100551.56
2023-07-30T09:00:38.356Z,100553.40
2023-07-30T09:03:08.617Z,100550.37
2023-07-30T09:05:38.036Z,100550.64
2023-07-30T09:08:08.027Z,100547.65
2023-07-30T09:10:36.424Z,100548.06
2023-07-30T09:13:04.933Z,100545.58
2023-07-30T09:15:35.046Z,100539.82
2023-07-30T09:18:03.488Z,100541.33
2023-07-30T09:20:39.756Z,100542.91
2023-07-30T09:23:09.666Z,100542.11
2023-07-30T09:25:39.065Z,100546.67
2023-07-30T09:28:08.137Z,100541.28
2023-07-30T09:30:36.775Z,100534.11
2023-07-30T09:33:06.067Z,100528.46
2023-07-30T09:35:35.822Z,100526.54
2023-07-30T09:38:05.292Z,100527.92
2023-07-30T09:40:40.092Z,100525.18
2023-07-30T09:43:08.357Z,100521.52
2023-07-30T09:45:38.245Z,100516.55
2023-07-30T09:48:07.380Z,100516.96
2023-07-30T09:50:36.844Z,100509.16
2023-07-30T09:53:06.167Z,100503.56
2023-07-30T09:55:34.369Z,100510.70
2023-07-30T09:58:02.709Z,100503.21
2023-07-30T10:00:31.600Z,100502.84
2023-07-30T10:03:02.621Z,100497.41
2023-07-30T10:05:37.745Z,100490.67
2023-07-30T10:08:17.640Z,100488.20
2023-07-30T10:10:46.092Z,100485.08
2023-07-30T10:13:16.238Z,100479.86
2023-07-30T10:15:45.417Z,100480.66
2023-07-30T10:18:13.682Z,100475.29
2023-07-30T10:20:47.129Z,100474.51
2023-07-30T10:23:15.238Z,100470.68
2023-07-30T10:25:54.003Z,100467.52
2023-07-30T10:28:31.210Z,100470.45
2023-07-30T10:31:09.416Z,100468.30
2023-07-30T10:33:47.129Z,100464.24
2023-07-30T10:36:18.839Z,100460.67
2023-07-30T10:38:48.486Z,100458.52
2023-07-30T10:41:18.739Z,100452.80
2023-07-30T10:43:51.601Z,100448.85
2023-07-30T10:46:20.683Z,100444.75
2023-07-30T10:48:50.294Z,100447.99
2023-07-30T10:51:20.478Z,100443.00
2023-07-30T10:53:50.476Z,100442.22
2023-07-30T10:56:23.160Z,100441.95
2023-07-30T10:58:53.713Z,100436.61
2023-07-30T11:01:26.942Z,100432.92
2023-07-30T11:03:55.589Z,100433.18
2023-07-30T11:06:25.799Z,100428.29
2023-07-30T11:08:54.737Z,100430.98
2023-07-30T11:11:25.786Z,100426.31
2023-07-30T11:13:54.192Z,100427.80
2023-07-30T11:16:22.804Z,100423.86
2023-07-30T11:18:51.759Z,100419.66
2023-07-30T11:21:20.431Z,100418.61
2023-07-30T11:23:48.633Z,100417.70
2023-07-30T11:26:20.931Z,100406.59
2023-07-30T11:28:49.726Z,100404.88
2023-07-30T11:31:25.947Z,100394.92
2023-07-30T11:33:54.599Z,100391.73
2023-07-30T11:36:26.783Z,100393.59
2023-07-30T11:38:55.514Z,100388.66
2023-07-30T11:41:26.032Z,100382.56
2023-07-30T11:43:55.282Z,100380.41
2023-07-30T11:46:26.144Z,100374.45
2023-07-30T11:49:11.518Z,100369.33
2023-07-30T11:51:40.303Z,100370.45
2023-07-30T11:54:09.274Z,100365.26
2023-07-30T11:56:37.715Z,100361.16
2023-07-30T11:59:08.285Z,100361.39
2023-07-30T12:01:38.559Z,100363.95
2023-07-30T12:04:08.066Z,100358.55
2023-07-30T12:06:43.281Z,100357.61
2023-07-30T12:09:15.556Z,100353.95
2023-07-30T12:11:56.932Z,100359.27
2023-07-30T12:14:31.742Z,100359.30
2023-07-30T12:17:04.436Z,100353.28
2023-07-30T12:19:33.976Z,100353.75
2023-07-30T12:22:02.200Z,100350.75
2023-07-30T12:24:30.458Z,100347.39
2023-07-30T12:26:58.955Z,100341.71
2023-07-30T12:29:27.678Z,100341.52
2023-07-30T12:31:57.834Z,100332.83
2023-07-30T12:34:26.445Z,100326.02
2023-07-30T12:36:59.800Z,100326.90
2023-07-30T12:39:52.003Z,100321.21
2023-07-30T12:42:20.807Z,100321.66
2023-07-30T12:44:48.856Z,100326.77
2023-07-30T12:47:17.520Z,100322.99
2023-07-30T12:49:46.058Z,100317.67
2023-07-30T12:52:14.682Z,100317.96
2023-07-30T12:54:42.962Z,100318.52
2023-07-30T12:57:11.188Z,100317.29
2023-07-30T12:59:39.313Z,100319.08
2023-07-30T13:02:08.181Z,100315.73
2023-07-30T13:04:36.670Z,100314.61
2023-07-30T13:07:05.197Z,100315.70
2023-07-30T13:09:33.884Z,100312.47
2023-07-30T13:12:02.458Z,100303.23
2023-07-30T13:14:30.874Z,100305.38
2023-07-30T13:16:59.633Z,100301.76
2023-07-30T13:19:31.451Z,100301.30
2023-07-30T13:22:00.338Z,100298.31
2023-07-30T13:24:30.946Z,100295.48
2023-07-30T13:26:59.668Z,100294.30
2023-07-30T13:29:27.995Z,100296.51
2023-07-30T13:31:56.727Z,100291.02
2023-07-30T13:34:25.293Z,100290.50
2023-07-30T13:36:54.161Z,100289.02
2023-07-30T13:39:22.464Z,100286.02
2023-07-30T13:41:50.651Z,100288.21
2023-07-30T13:44:18.898Z,100286.27
2023-07-30T13:46:47.085Z,100284.69
2023-07-30T13:49:15.534Z,100278.91
2023-07-30T13:51:44.047Z,100276.33
2023-07-30T13:54:13.203Z,100277.82
2023-07-30T13:56:41.607Z,100277.34
2023-07-30T13:59:10.107Z,100274.17
2023-07-30T14:01:38.799Z,100276.31
2023-07-30T14:04:07.131Z,100272.77
2023-07-30T14:06:35.620Z,100275.39
2023-07-30T14:09:05.855Z,100276.04
2023-07-30T14:11:34.519Z,100279.98
2023-07-30T14:14:03.023Z,100283.65
2023-07-30T14:16:48.087Z,100294.69
2023-07-30T14:19:16.425Z,100294.08
2023-07-30T14:21:45.083Z,100300.36
2023-07-30T14:24:13.254Z,100334.70
2023-07-30T14:26:41.751Z,100350.65
2023-07-30T14:29:10.307Z,100348.41
2023-07-30T14:31:41.265Z,100368.54
2023-07-30T14:34:10.088Z,100398.31
2023-07-30T14:36:38.291Z,100394.14
2023-07-30T14:39:06.624Z,100383.89
2023-07-30T14:41:35.355Z,100394.91
2023-07-30T14:44:03.738Z,100381.67
2023-07-30T14:46:32.117Z,100351.00
2023-07-30T14:49:01.027Z,100339.41
2023-07-30T14:51:29.423Z,100323.98
2023-07-30T14:53:57.583Z,100311.84
2023-07-30T14:56:27.919Z,100306.23
2023-07-30T14:58:55.994Z,100311.45
2023-07-30T15:01:39.213Z,100311.96
2023-07-30T15:04:07.427Z,100311.48
2023-07-30T15:06:37.003Z,100307.41
2023-07-30T15:09:05.735Z,100309.20
2023-07-30T15:11:34.020Z,100305.62
2023-07-30T15:14:02.701Z,100307.77
2023-07-30T15:16:30.820Z,100308.75
2023-07-30T15:18:59.725Z,100309.16
2023-07-30T15:21:30.888Z,100310.05
2023-07-30T15:24:01.908Z,100306.50
2023-07-30T15:26:30.268Z,100298.80
2023-07-30T15:28:58.784Z,100291.86
2023-07-30T15:31:28.191Z,100290.81
2023-07-30T15:33:56.612Z,100281.11
2023-07-30T15:36:25.290Z,100275.11
2023-07-30T15:38:55.872Z,100273.84
2023-07-30T15:41:24.370Z,100271.17
2023-07-30T15:43:52.953Z,100271.82
2023-07-30T15:46:21.970Z,100268.52
2023-07-30T15:48:50.810Z,100271.09
2023-07-30T15:51:19.524Z,100274.89
2023-07-30T15:53:48.404Z,100273.96
2023-07-30T15:56:16.672Z,100274.55
2023-07-30T15:58:45.076Z,100273.19
2023-07-30T16:01:13.538Z,100268.27
2023-07-30T16:03:41.887Z,100270.36
2023-07-30T16:06:10.586Z,100270.40
2023-07-30T16:08:40.433Z,100270.56
2023-07-30T16:11:12.287Z,100277.43
2023-07-30T16:13:40.555Z,100276.86
2023-07-30T16:16:13.491Z,100275.23
2023-07-30T16:18:44.763Z,100278.34
2023-07-30T16:21:12.907Z,100277.75
2023-07-30T16:23:41.554Z,100273.33
2023-07-30T16:26:10.655Z,100265.42
2023-07-30T16:28:39.469Z,100267.47
2023-07-30T16:31:08.272Z,100264.51
2023-07-30T16:33:37.272Z,100268.48
2023-07-30T16:36:08.279Z,100272.21
2023-07-30T16:38:36.883Z,100274.80
2023-07-30T16:41:04.949Z,100273.95
2023-07-30T16:43:33.098Z,100279.53
2023-07-30T16:46:05.011Z,100288.36
2023-07-30T16:48:33.323Z,100299.69
2023-07-30T16:51:02.517Z,100312.79
2023-07-30T16:53:30.942Z,100319.94
2023-07-30T16:55:59.239Z,100317.10
2023-07-30T16:58:27.444Z,100307.17
2023-07-30T17:01:05.253Z,100306.70
2023-07-30T17:03:40.261Z,100309.14
2023-07-30T17:06:08.841Z,100310.67
2023-07-30T17:08:40.089Z,100315.02
2023-07-30T17:11:09.443Z,100316.80
2023-07-30T17:13:37.682Z,100317.77
2023-07-30T17:16:07.484Z,100324.44
2023-07-30T17:18:36.036Z,100324.48
2023-07-30T17:21:05.542Z,100328.83
2023-07-30T17:23:34.548Z,100329.52
2023-07-30T17:26:03.487Z,100330.52
2023-07-30T17:28:33.262Z,100332.48
2023-07-30T17:31:02.770Z,100331.69
2023-07-30T17:33:32.032Z,100335.05
2023-07-30T17:36:04.230Z,100333.46
2023-07-30T17:38:32.489Z,100340.64
2023-07-30T17:41:00.639Z,100336.94
2023-07-30T17:43:29.242Z,100342.14
2023-07-30T17:45:57.661Z,100346.41
2023-07-30T17:48:28.682Z,100349.26
2023-07-30T17:50:57.218Z,100353.73
2023-07-30T17:53:25.905Z,100353.54
2023-07-30T17:55:54.100Z,100347.26
2023-07-30T17:58:24.617Z,100349.89
2023-07-30T18:00:52.950Z,100356.27
2023-07-30T18:03:21.312Z,100357.60
2023-07-30T18:05:49.831Z,100359.33
2023-07-30T18:08:18.336Z,100367.91
2023-07-30T18:10:49.508Z,100373.10
2023-07-30T18:13:19.020Z,100380.17
2023-07-30T18:15:47.314Z,100377.73
2023-07-30T18:18:15.751Z,100381.20
2023-07-30T18:20:44.054Z,100382.80
2023-07-30T18:23:13.787Z,100386.23
2023-07-30T18:25:42.227Z,100393.35
2023-07-30T18:28:10.581Z,100394.53
2023-07-30T18:30:40.233Z,100399.50
2023-07-30T18:33:11.098Z,100406.80
2023-07-30T18:35:39.927Z,100411.32
2023-07-30T18:38:10.832Z,100415.21
2023-07-30T18:40:41.567Z,100420.96
2023-07-30T18:43:10.029Z,100424.09
2023-07-30T18:45:38.724Z,100427.30
2023-07-30T18:48:07.510Z,100430.27
2023-07-30T18:50:38.046Z,100436.88
2023-07-30T18:53:06.478Z,100441.58
2023-07-30T18:55:36.092Z,100444.41
2023-07-30T18:58:04.280Z,100449.98
2023-07-30T19:00:33.626Z,100452.17
2023-07-30T19:03:01.927Z,100456.13
2023-07-30T19:05:30.401Z,100452.45
2023-07-30T19:08:00.459Z,100455.89
2023-07-30T19:10:28.861Z,100454.77
2023-07-30T19:12:58.598Z,100452.73
2023-07-30T19:15:28.027Z,100457.60
2023-07-30T19:17:56.257Z,100453.67
2023-07-30T19:20:24.725Z,100450.75
2023-07-30T19:22:53.155Z,100453.23
2023-07-30T19:25:22.458Z,100453.95
2023-07-30T19:27:50.914Z,100460.73
2023-07-30T19:30:20.216Z,100461.70
2023-07-30T19:32:48.537Z,100467.58
2023-07-30T19:35:16.759Z,100470.20
2023-07-30T19:37:46.055Z,100473.89
2023-07-30T19:40:14.666Z,100479.28
2023-07-30T19:42:42.874Z,100483.92
2023-07-30T19:45:11.597Z,100488.61
2023-07-30T19:47:40.766Z,100494.10
2023-07-30T19:50:16.534Z,100505.69
2023-07-30T19:52:47.043Z,100524.73
2023-07-30T19:55:15.500Z,100526.48
2023-07-30T19:57:43.793Z,100528.67
2023-07-30T20:00:12.938Z,100525.73
2023-07-30T20:02:41.749Z,100525.20
2023-07-30T20:05:10.232Z,100528.80
2023-07-30T20:07:38.543Z,100531.51
2023-07-30T20:10:07.541Z,100530.66
2023-07-30T20:12:35.646Z,100535.20
2023-07-30T20:15:04.778Z,100534.66
2023-07-30T20:17:33.175Z,100537.08
2023-07-30T20:20:01.397Z,100535.56
2023-07-30T20:22:29.607Z,100534.94
2023-07-30T20:24:57.893Z,100535.66
2023-07-30T20:27:26.154Z,100535.66
2023-07-30T20:29:54.887Z,100542.31
2023-07-30T20:32:25.354Z,100547.29
2023-07-30T20:34:53.545Z,100554.56
2023-07-30T20:37:21.752Z,100559.36
2023-07-30T20:39:50.068Z,100564.23
2023-07-30T20:42:18.231Z,100564.73
2023-07-30T20:44:46.534Z,100565.84
2023-07-30T20:47:14.568Z,100568.17
2023-07-30T20:49:44.246Z,100568.54
2023-07-30T20:52:12.500Z,100565.31
2023-07-30T20:54:40.740Z,100560.33
2023-07-30T20:57:09.171Z,100561.05
2023-07-30T20:59:38.085Z,100568.05
2023-07-30T21:02:06.636Z,100579.84
2023-07-30T21:04:35.591Z,100586.30
2023-07-30T21:07:04.427Z,100592.98
2023-07-30T21:09:32.551Z,100591.38
2023-07-30T21:12:00.610Z,100593.70
2023-07-30T21:14:29.303Z,100597.95
2023-07-30T21:16:57.434Z,100591.70
2023-07-30T21:19:26.695Z,100584.70
2023-07-30T21:21:55.620Z,100583.32
2023-07-30T21:24:23.846Z,100593.52
2023-07-30T21:26:52.026Z,100598.65
2023-07-30T21:29:20.484Z,100598.14
2023-07-30T21:31:49.311Z,100606.27
2023-07-30T21:34:17.677Z,100612.05
2023-07-30T21:36:46.085Z,100614.56
2023-07-30T21:39:15.142Z,100614.20
2023-07-30T21:41:43.545Z,100614.60
2023-07-30T21:44:11.612Z,100616.23
2023-07-30T21:46:40.174Z,100614.34
2023-07-30T21:49:08.662Z,100612.52
2023-07-30T21:51:37.187Z,100611.23
2023-07-30T21:54:05.492Z,100605.64
2023-07-30T21:56:33.654Z,100606.61
2023-07-30T21:59:01.826Z,100605.61
2023-07-30T22:01:29.915Z,100610.09
2023-07-30T22:04:00.414Z,100607.66
2023-07-30T22:06:28.852Z,100605.27
2023-07-30T22:08:57.275Z,100597.52
2023-07-30T22:11:26.964Z,100596.28
2023-07-30T22:13:56.333Z,100597.85
2023-07-30T22:16:24.665Z,100597.64
2023-07-30T22:18:52.747Z,100601.13
2023-07-30T22:21:21.009Z,100600.29
2023-07-30T22:23:51.884Z,100592.59
2023-07-30T22:26:20.097Z,100591.21
2023-07-30T22:28:48.757Z,100589.83
2023-07-30T22:31:17.159Z,100588.48
2023-07-30T22:33:45.555Z,100590.13
2023-07-30T22:36:13.760Z,100587.20
2023-07-30T22:38:41.917Z,100587.92
2023-07-30T22:41:10.143Z,100586.52
2023-07-30T22:43:38.166Z,100585.10
2023-07-30T22:46:06.603Z,100581.28
2023-07-30T22:48:34.923Z,100578.93
2023-07-30T22:51:03.863Z,100578.05
2023-07-30T22:53:32.097Z,100571.92
2023-07-30T22:56:00.154Z,100566.74
2023-07-30T22:58:28.425Z,100565.05
2023-07-30T23:00:56.872Z,100564.39
2023-07-30T23:03:25.160Z,100557.14
2023-07-30T23:05:53.716Z,100556.28
2023-07-30T23:08:22.106Z,100551.11
2023-07-30T23:10:53.707Z,100543.36
2023-07-30T23:13:21.835Z,100539.56
2023-07-30T23:15:50.207Z,100537.34
2023-07-30T23:18:18.729Z,100533.19
2023-07-30T23:20:48.881Z,100536.30
2023-07-30T23:23:17.270Z,100532.22
2023-07-30T23:25:45.608Z,100536.00
2023-07-30T23:28:14.053Z,100535.46
2023-07-30T23:30:42.887Z,100535.93
2023-07-30T23:33:11.285Z,100537.91
2023-07-30T23:35:39.679Z,100538.89
2023-07-30T23:38:08.370Z,100534.45
2023-07-30T23:40:36.696Z,100529.31
2023-07-30T23:43:07.104Z,100521.55
2023-07-30T23:45:35.439Z,100518.84
2023-07-30T23:48:04.273Z,100504.81
2023-07-30T23:50:32.995Z,100498.02
2023-07-30T23:53:01.319Z,100492.81
2023-07-30T23:55:29.453Z,100493.70
2023-07-30T23:57:57.726Z,100504.93
